Time;durP1;ratioP1;P1;durP2;ratioP2;P2;SDS_P1;SDS_P2;PMS_P1;PMS_P2;Temp;Humidity;BMP_temperature;BMP_pressure;BME280_temperature;BME280_humidity;BME280_pressure;Samples;Min_cycle;Max_cycle;Signal;HPM_P1;HPM_P2
2023/08/17 00:00:09;;;;;;;10.20;7.10;;;;;;;17.46;100.00;100956.94;681765;29;850;-71
2023/08/17 00:00:30;;;;;;;11.00;7.10;;;;;;;17.46;100.00;100956.94;676661;29;1463;-70
2023/08/17 00:00:51;;;;;;;9.30;7.20;;;;;;;17.46;100.00;100956.06;676341;29;4343;-71
2023/08/17 00:01:11;;;;;;;9.75;7.65;;;;;;;17.45;100.00;100954.34;678868;29;972;-71
2023/08/17 00:01:31;;;;;;;9.43;7.73;;;;;;;17.43;100.00;100951.75;678365;29;2197;-72
2023/08/17 00:01:52;;;;;;;9.43;7.50;;;;;;;17.51;100.00;100949.78;679004;29;1457;-72
2023/08/17 00:02:13;;;;;;;9.50;7.20;;;;;;;17.50;100.00;100947.13;675621;29;835;-71
2023/08/17 00:02:33;;;;;;;8.65;7.30;;;;;;;17.48;100.00;100948.97;678433;29;1735;-71
2023/08/17 00:02:54;;;;;;;9.13;7.50;;;;;;;17.51;100.00;100946.25;678953;29;1972;-71
2023/08/17 00:03:14;;;;;;;10.40;7.40;;;;;;;17.49;100.00;100942.78;677248;29;788;-71
2023/08/17 00:03:34;;;;;;;9.83;7.60;;;;;;;17.49;100.00;100945.44;675423;29;2265;-71
2023/08/17 00:03:55;;;;;;;9.45;7.10;;;;;;;17.46;100.00;100946.38;676878;29;4259;-70
2023/08/17 00:04:16;;;;;;;8.30;7.13;;;;;;;17.44;100.00;100947.34;679959;29;789;-71
2023/08/17 00:04:36;;;;;;;8.52;6.90;;;;;;;17.42;100.00;100952.66;678474;29;1622;-71
2023/08/17 00:04:57;;;;;;;10.27;7.22;;;;;;;17.45;100.00;100949.06;679689;29;1323;-70
2023/08/17 00:05:17;;;;;;;8.70;7.00;;;;;;;17.46;100.00;100945.50;681283;29;1256;-70
2023/08/17 00:05:39;;;;;;;8.63;6.75;;;;;;;17.45;100.00;100949.94;681093;29;873;-71
2023/08/17 00:06:00;;;;;;;9.70;7.22;;;;;;;17.46;100.00;100950.78;681852;29;854;-71
2023/08/17 00:06:20;;;;;;;10.07;6.73;;;;;;;17.47;100.00;100941.94;678787;28;2402;-72
2023/08/17 00:06:41;;;;;;;8.85;7.05;;;;;;;17.49;100.00;100956.00;679980;29;4334;-72
2023/08/17 00:07:01;;;;;;;7.87;7.03;;;;;;;17.46;100.00;100956.06;681102;28;972;-72
2023/08/17 00:07:21;;;;;;;8.45;6.97;;;;;;;17.44;100.00;100950.81;678836;28;1945;-72
2023/08/17 00:07:42;;;;;;;10.40;7.00;;;;;;;17.42;100.00;100955.31;680336;29;905;-72
2023/08/17 00:08:02;;;;;;;11.53;7.20;;;;;;;17.42;100.00;100949.13;680315;29;929;-72
2023/08/17 00:08:23;;;;;;;9.95;7.22;;;;;;;17.43;100.00;100953.53;679875;28;1520;-72
2023/08/17 00:08:44;;;;;;;9.13;7.40;;;;;;;17.39;100.00;100954.53;681931;28;1122;-72
2023/08/17 00:09:06;;;;;;;8.85;6.95;;;;;;;17.34;100.00;100952.88;681135;29;925;-72
2023/08/17 00:09:26;;;;;;;9.57;6.88;;;;;;;17.35;100.00;100959.03;680835;28;1560;-72
2023/08/17 00:09:47;;;;;;;9.33;7.50;;;;;;;17.32;100.00;100956.47;679052;28;4382;-72
2023/08/17 00:10:08;;;;;;;9.80;7.03;;;;;;;17.30;100.00;100956.50;681126;29;917;-72
2023/08/17 00:10:28;;;;;;;8.55;7.13;;;;;;;17.28;100.00;100953.06;679002;29;1753;-72
2023/08/17 00:10:49;;;;;;;9.20;7.17;;;;;;;17.30;100.00;100955.66;680619;29;857;-72
2023/08/17 00:11:10;;;;;;;8.55;6.65;;;;;;;17.30;100.00;100959.16;680184;29;1947;-72
2023/08/17 00:11:30;;;;;;;8.10;6.63;;;;;;;17.35;100.00;100957.25;678621;29;1272;-72
2023/08/17 00:11:51;;;;;;;8.20;7.10;;;;;;;17.41;100.00;100958.00;680665;29;798;-71
2023/08/17 00:12:11;;;;;;;7.57;6.60;;;;;;;17.46;100.00;100961.34;679008;29;1064;-72
2023/08/17 00:12:31;;;;;;;8.30;6.90;;;;;;;17.39;100.00;100959.81;677165;29;1735;-71
2023/08/17 00:12:52;;;;;;;8.73;6.73;;;;;;;17.34;100.00;100952.00;675236;29;4344;-72
2023/08/17 00:13:14;;;;;;;8.85;6.15;;;;;;;17.31;100.00;100960.88;676210;29;1399;-72
2023/08/17 00:13:35;;;;;;;9.07;6.43;;;;;;;17.29;100.00;100965.38;674894;29;913;-72
2023/08/17 00:13:55;;;;;;;8.02;6.55;;;;;;;17.29;100.00;100957.44;676340;29;1100;-72
2023/08/17 00:14:15;;;;;;;8.07;6.40;;;;;;;17.25;100.00;100963.72;679660;29;1048;-69
2023/08/17 00:14:36;;;;;;;7.93;6.23;;;;;;;17.21;100.00;100956.78;678345;29;1723;-72
2023/08/17 00:14:56;;;;;;;10.05;6.60;;;;;;;17.23;100.00;100964.66;681273;29;1320;-70
2023/08/17 00:15:16;;;;;;;11.00;6.90;;;;;;;17.29;100.00;100960.09;679710;29;1125;-73
2023/08/17 00:15:37;;;;;;;9.23;6.82;;;;;;;17.32;100.00;100960.00;677936;29;2293;-72
2023/08/17 00:15:57;;;;;;;9.00;6.93;;;;;;;17.30;100.00;100960.94;678277;29;5187;-72
2023/08/17 00:16:18;;;;;;;10.75;6.75;;;;;;;17.33;100.00;100966.13;679327;29;3658;-72
2023/08/17 00:16:38;;;;;;;9.43;6.83;;;;;;;17.29;100.00;100965.38;677999;29;1720;-72
2023/08/17 00:16:59;;;;;;;9.30;7.10;;;;;;;17.35;100.00;100965.19;679805;29;1083;-72
2023/08/17 00:17:20;;;;;;;9.03;6.40;;;;;;;17.33;100.00;100964.38;678484;28;1757;-72
2023/08/17 00:17:40;;;;;;;9.10;6.40;;;;;;;17.32;100.00;100964.38;680906;29;1375;-72
2023/08/17 00:18:00;;;;;;;9.50;6.63;;;;;;;17.26;100.00;100968.06;681379;29;771;-73
2023/08/17 00:18:21;;;;;;;9.05;6.80;;;;;;;17.25;100.00;100963.72;679259;28;1797;-72
2023/08/17 00:18:41;;;;;;;8.70;6.80;;;;;;;17.25;100.00;100965.47;680202;28;4379;-71
2023/08/17 00:19:02;;;;;;;8.87;6.70;;;;;;;17.22;100.00;100961.13;681555;29;820;-72
2023/08/17 00:19:23;;;;;;;9.87;6.83;;;;;;;17.20;100.00;100962.97;679666;28;2469;-72
2023/08/17 00:19:43;;;;;;;8.63;6.55;;;;;;;17.18;100.00;100964.78;677949;29;1244;-71
2023/08/17 00:20:05;;;;;;;9.40;7.15;;;;;;;17.15;100.00;100968.34;676817;29;818;-72
2023/08/17 00:20:25;;;;;;;10.00;7.32;;;;;;;17.14;100.00;100960.47;675994;29;1563;-71
2023/08/17 00:20:45;;;;;;;9.77;6.90;;;;;;;17.15;100.00;100970.16;676715;29;960;-71
2023/08/17 00:21:06;;;;;;;9.37;6.90;;;;;;;17.12;100.00;100971.09;680028;29;1144;-70
2023/08/17 00:21:26;;;;;;;8.43;6.77;;;;;;;17.11;100.00;100971.13;680755;28;1725;-72
2023/08/17 00:21:47;;;;;;;8.77;7.00;;;;;;;17.09;100.00;100968.53;681637;28;4360;-71
2023/08/17 00:22:08;;;;;;;9.35;7.00;;;;;;;17.11;100.00;100964.09;679490;29;1171;-71
2023/08/17 00:22:28;;;;;;;9.37;7.07;;;;;;;17.11;100.00;100979.06;675605;29;1670;-72
2023/08/17 00:22:49;;;;;;;8.15;6.78;;;;;;;17.11;100.00;100968.50;676752;29;1103;-72
2023/08/17 00:23:10;;;;;;;8.70;6.90;;;;;;;17.12;100.00;100979.03;676991;29;1973;-72
2023/08/17 00:23:31;;;;;;;9.98;6.95;;;;;;;17.12;100.00;100967.59;676029;29;1313;-71
2023/08/17 00:23:51;;;;;;;8.93;6.95;;;;;;;17.13;100.00;100964.91;677575;29;898;-72
2023/08/17 00:24:11;;;;;;;8.63;7.33;;;;;;;17.14;100.00;100968.41;679176;29;786;-72
2023/08/17 00:24:32;;;;;;;9.40;6.93;;;;;;;17.14;100.00;100971.94;677927;29;1885;-72
2023/08/17 00:24:52;;;;;;;9.45;6.65;;;;;;;17.13;100.00;100964.06;674143;29;4328;-72
2023/08/17 00:25:13;;;;;;;8.93;6.93;;;;;;;17.11;100.00;100965.84;674711;29;1508;-72
2023/08/17 00:25:34;;;;;;;8.18;6.88;;;;;;;17.09;100.00;100968.53;675175;29;2286;-72
2023/08/17 00:25:55;;;;;;;7.93;6.80;;;;;;;17.08;100.00;100964.16;678933;29;1369;-70
2023/08/17 00:26:16;;;;;;;9.55;7.20;;;;;;;17.06;100.00;100965.09;679130;29;1055;-72
2023/08/17 00:26:37;;;;;;;9.30;7.00;;;;;;;17.05;100.00;100966.88;673551;29;1820;-74
2023/08/17 00:26:57;;;;;;;10.45;6.70;;;;;;;17.07;100.00;100973.00;675401;29;1185;-70
2023/08/17 00:27:20;;;;;;;10.07;6.60;;;;;;;17.09;100.00;100970.34;676565;29;1117;-71
2023/08/17 00:27:40;;;;;;;9.68;7.10;;;;;;;17.11;100.00;100963.22;674070;29;4300;-72
2023/08/17 00:28:01;;;;;;;9.17;7.20;;;;;;;17.14;100.00;100971.03;674479;29;892;-73
2023/08/17 00:28:21;;;;;;;9.25;6.57;;;;;;;17.13;100.00;100969.34;673097;29;2232;-72
2023/08/17 00:28:42;;;;;;;9.00;6.50;;;;;;;17.12;100.00;100972.88;676960;29;1249;-71
2023/08/17 00:29:02;;;;;;;9.07;7.10;;;;;;;17.10;100.00;100967.63;677528;29;1314;-71
2023/08/17 00:29:23;;;;;;;9.90;6.95;;;;;;;17.12;100.00;100970.25;678027;29;1796;-72
2023/08/17 00:29:43;;;;;;;8.93;6.67;;;;;;;17.11;100.00;100961.47;677024;29;1245;-71
2023/08/17 00:30:04;;;;;;;9.97;7.03;;;;;;;17.12;100.00;100972.88;677750;29;1754;-72
2023/08/17 00:30:25;;;;;;;9.53;7.00;;;;;;;17.09;100.00;100965.03;675599;29;2701;-71
2023/08/17 00:30:45;;;;;;;9.60;7.23;;;;;;;17.09;100.00;100965.03;676078;29;4698;-71
2023/08/17 00:31:06;;;;;;;9.13;7.13;;;;;;;17.09;100.00;100972.97;674070;29;1162;-72
2023/08/17 00:31:26;;;;;;;10.40;7.28;;;;;;;17.06;100.00;100966.00;672338;29;2365;-71
2023/08/17 00:31:47;;;;;;;8.50;7.20;;;;;;;17.06;100.00;100960.72;673900;29;969;-72
2023/08/17 00:32:07;;;;;;;7.90;6.90;;;;;;;17.05;100.00;100966.88;674892;29;885;-72
2023/08/17 00:32:30;;;;;;;8.32;6.88;;;;;;;17.05;100.00;100972.16;675410;29;944;-71
2023/08/17 00:32:50;;;;;;;8.00;6.80;;;;;;;17.04;100.00;100965.16;674580;29;1119;-71
2023/08/17 00:33:13;;;;;;;8.27;7.00;;;;;;;17.04;100.00;100972.22;672859;29;1014;-72
2023/08/17 00:33:34;;;;;;;8.88;7.00;;;;;;;17.00;100.00;100963.50;672261;29;2414;-72
2023/08/17 00:33:55;;;;;;;9.65;6.85;;;;;;;16.99;100.00;100960.00;672265;29;4360;-71
2023/08/17 00:34:15;;;;;;;9.30;7.23;;;;;;;17.00;100.00;100959.09;673737;29;945;-72
2023/08/17 00:34:35;;;;;;;8.32;7.13;;;;;;;17.00;100.00;100956.47;671190;29;2706;-71
2023/08/17 00:34:56;;;;;;;8.83;6.93;;;;;;;16.98;100.00;100960.91;674373;29;3020;-73
2023/08/17 00:35:16;;;;;;;8.70;7.03;;;;;;;16.94;100.00;100959.25;673349;29;1260;-68
2023/08/17 00:35:37;;;;;;;10.10;6.97;;;;;;;16.94;100.00;100959.25;672976;29;1796;-73
2023/08/17 00:35:57;;;;;;;11.23;7.47;;;;;;;16.97;100.00;100959.16;674842;29;1239;-73
2023/08/17 00:36:20;;;;;;;9.15;7.20;;;;;;;16.97;100.00;100960.94;675342;29;1477;-72
2023/08/17 00:36:40;;;;;;;9.30;7.38;;;;;;;16.96;100.00;100954.81;676772;29;4371;-72
2023/08/17 00:37:03;;;;;;;8.80;7.30;;;;;;;16.94;100.00;100953.97;679358;29;1395;-71
2023/08/17 00:37:23;;;;;;;8.88;7.47;;;;;;;16.95;100.00;100958.34;678857;29;1806;-72
2023/08/17 00:37:44;;;;;;;13.53;8.40;;;;;;;16.98;100.00;100960.91;678166;29;1319;-72
2023/08/17 00:38:04;;;;;;;11.02;7.40;;;;;;;16.96;100.00;100962.72;677933;29;755;-72
2023/08/17 00:38:25;;;;;;;10.77;7.43;;;;;;;16.94;100.00;100958.41;678625;29;1358;-72
2023/08/17 00:38:45;;;;;;;9.50;7.30;;;;;;;16.93;100.00;100962.78;674657;29;5797;-72
2023/08/17 00:39:06;;;;;;;8.87;7.47;;;;;;;16.93;100.00;100962.78;673745;29;1306;-70
2023/08/17 00:39:26;;;;;;;9.00;7.15;;;;;;;16.93;100.00;100962.78;672731;29;2132;-71
2023/08/17 00:39:47;;;;;;;9.93;7.22;;;;;;;16.91;100.00;100959.34;676008;29;4331;-72
2023/08/17 00:40:08;;;;;;;10.67;7.63;;;;;;;17.00;100.00;100959.09;675449;29;1321;-73
2023/08/17 00:40:28;;;;;;;10.60;7.97;;;;;;;17.01;100.00;100957.31;675272;29;1510;-71
2023/08/17 00:40:49;;;;;;;9.40;7.32;;;;;;;17.00;100.00;100964.38;676399;29;863;-72
2023/08/17 00:41:09;;;;;;;9.30;7.40;;;;;;;16.97;100.00;100964.44;679634;29;1083;-73
2023/08/17 00:41:30;;;;;;;10.18;7.72;;;;;;;17.02;100.00;100959.06;676395;29;2659;-72
2023/08/17 00:41:51;;;;;;;10.50;7.73;;;;;;;17.01;100.00;100958.16;677193;29;866;-69
2023/08/17 00:42:13;;;;;;;11.05;7.20;;;;;;;16.94;100.00;100959.25;677518;29;1512;-71
2023/08/17 00:42:33;;;;;;;10.03;7.07;;;;;;;16.92;100.00;100961.06;677949;29;1574;-71
2023/08/17 00:42:54;;;;;;;8.93;7.20;;;;;;;16.92;100.00;100963.72;675264;29;4335;-71
2023/08/17 00:43:14;;;;;;;10.57;7.20;;;;;;;16.90;100.00;100954.09;674658;29;1246;-71
2023/08/17 00:43:35;;;;;;;11.57;7.90;;;;;;;16.89;100.00;100969.09;673697;29;1774;-71
2023/08/17 00:43:55;;;;;;;10.47;7.67;;;;;;;16.87;100.00;100960.28;674430;29;1241;-72
2023/08/17 00:44:22;;;;;;;9.07;7.68;;;;;;;16.90;100.00;100957.59;675021;29;1640;-72
2023/08/17 00:44:42;;;;;;;10.23;7.88;;;;;;;16.94;100.00;100959.25;674587;29;1230;-72
2023/08/17 00:45:03;;;;;;;10.00;7.57;;;;;;;16.94;100.00;100956.59;676524;29;882;-70
2023/08/17 00:45:23;;;;;;;10.73;7.50;;;;;;;16.93;100.00;100965.44;675526;29;1737;-74
2023/08/17 00:45:46;;;;;;;10.75;7.55;;;;;;;16.88;100.00;100959.41;675436;29;4367;-70
2023/08/17 00:46:07;;;;;;;9.73;7.40;;;;;;;16.88;100.00;100962.03;676610;29;1410;-72
2023/08/17 00:46:29;;;;;;;9.43;7.60;;;;;;;16.86;100.00;100958.56;675287;29;1835;-71
2023/08/17 00:46:50;;;;;;;12.05;7.85;;;;;;;16.86;100.00;100961.19;679061;29;850;-72
2023/08/17 00:47:12;;;;;;;9.95;7.85;;;;;;;16.86;100.00;100958.56;677781;29;1295;-72
2023/08/17 00:47:32;;;;;;;8.57;7.43;;;;;;;16.92;100.00;100963.72;677425;29;1728;-71
2023/08/17 00:47:56;;;;;;;8.43;7.53;;;;;;;16.91;100.00;100961.97;678759;29;1266;-71
2023/08/17 00:48:16;;;;;;;8.80;7.43;;;;;;;16.92;100.00;100962.84;676004;29;911;-71
2023/08/17 00:48:37;;;;;;;9.43;7.50;;;;;;;16.87;100.00;100960.28;676238;29;2358;-72
2023/08/17 00:48:58;;;;;;;11.80;7.68;;;;;;;16.86;100.00;100966.47;675648;29;4309;-72
2023/08/17 00:49:18;;;;;;;10.77;8.02;;;;;;;16.84;100.00;100965.66;678370;29;1194;-71
2023/08/17 00:49:39;;;;;;;10.83;8.03;;;;;;;16.83;100.00;100964.78;677231;29;2464;-71
2023/08/17 00:50:00;;;;;;;11.90;7.97;;;;;;;16.82;100.00;100962.19;677271;29;1390;-71
2023/08/17 00:50:21;;;;;;;10.43;8.07;;;;;;;16.82;100.00;100963.06;679551;29;909;-72
2023/08/17 00:50:41;;;;;;;9.40;8.00;;;;;;;16.83;100.00;100961.28;675958;29;2345;-70
2023/08/17 00:51:02;;;;;;;10.25;7.88;;;;;;;16.82;100.00;100959.53;677282;29;862;-73
2023/08/17 00:51:24;;;;;;;9.98;8.02;;;;;;;16.80;100.00;100961.38;675887;29;2244;-69
2023/08/17 00:51:44;;;;;;;9.23;8.00;;;;;;;16.76;100.00;100957.94;678552;29;4674;-71
2023/08/17 00:52:05;;;;;;;10.38;8.00;;;;;;;16.76;100.00;100960.56;677132;29;1209;-71
2023/08/17 00:52:25;;;;;;;9.70;8.00;;;;;;;16.73;100.00;100958.00;676291;29;2262;-71
2023/08/17 00:52:46;;;;;;;9.23;8.03;;;;;;;16.74;100.00;100956.22;674051;29;1178;-72
2023/08/17 00:53:07;;;;;;;10.48;7.90;;;;;;;16.75;100.00;100960.59;673433;29;1370;-72
2023/08/17 00:53:30;;;;;;;10.32;7.93;;;;;;;16.72;100.00;100955.41;674690;29;1538;-72
2023/08/17 00:53:59;;;;;;;9.95;8.05;;;;;;;16.73;100.00;100954.53;676373;29;1281;-72
2023/08/17 00:54:24;;;;;;;9.80;8.80;;;;;;;16.72;100.00;100952.78;679740;29;1179;-72
2023/08/17 00:54:44;;;;;;;9.75;8.25;;;;;;;16.73;100.00;100959.78;679192;29;4313;-72
2023/08/17 00:55:05;;;;;;;10.70;8.07;;;;;;;16.75;100.00;100957.97;676037;29;1550;-72
2023/08/17 00:55:26;;;;;;;10.80;8.80;;;;;;;16.75;100.00;100955.31;675601;29;2660;-69
2023/08/17 00:55:47;;;;;;;9.40;8.10;;;;;;;16.72;100.00;100958.91;678740;29;1159;-71
2023/08/17 00:56:08;;;;;;;9.90;8.35;;;;;;;16.78;100.00;100960.53;678630;29;950;-73
2023/08/17 00:56:29;;;;;;;10.30;8.02;;;;;;;16.76;100.00;100957.94;674927;29;1845;-71
2023/08/17 00:56:54;;;;;;;10.20;8.13;;;;;;;16.76;100.00;100965.00;675843;29;1284;-73
2023/08/17 00:57:14;;;;;;;9.60;8.38;;;;;;;16.76;100.00;100954.44;676002;29;846;-71
2023/08/17 00:57:36;;;;;;;10.00;8.50;;;;;;;16.75;100.00;100958.81;675780;29;1097;-73
2023/08/17 00:57:57;;;;;;;9.80;8.33;;;;;;;16.71;100.00;100958.94;675018;29;4451;-72
2023/08/17 00:58:19;;;;;;;11.27;8.13;;;;;;;16.72;100.00;100958.06;678328;29;1515;-70
2023/08/17 00:58:41;;;;;;;10.50;8.13;;;;;;;16.70;100.00;100958.09;679804;29;2445;-72
2023/08/17 00:59:02;;;;;;;11.68;8.35;;;;;;;16.73;100.00;100958.00;682349;29;954;-71
2023/08/17 00:59:23;;;;;;;11.00;8.07;;;;;;;16.75;100.00;100957.97;679297;29;1090;-71
2023/08/17 00:59:44;;;;;;;10.45;7.85;;;;;;;16.75;100.00;100957.97;677861;29;1552;-69
2023/08/17 01:00:05;;;;;;;10.53;8.10;;;;;;;16.73;100.00;100959.78;679054;29;1182;-71
2023/08/17 01:00:27;;;;;;;10.57;8.30;;;;;;;16.72;100.00;100958.91;675479;29;1210;-71
2023/08/17 01:00:48;;;;;;;10.05;8.50;;;;;;;16.71;100.00;100961.59;676120;29;4281;-71
2023/08/17 01:01:09;;;;;;;10.30;8.40;;;;;;;16.69;100.00;100959.84;677977;29;1330;-71
2023/08/17 01:01:30;;;;;;;9.82;8.48;;;;;;;16.69;100.00;100961.63;678243;29;1770;-71
2023/08/17 01:01:51;;;;;;;10.55;8.52;;;;;;;16.68;100.00;100960.78;678578;29;973;-72
2023/08/17 01:02:12;;;;;;;10.07;7.90;;;;;;;16.71;100.00;100966.88;680113;29;1045;-69
2023/08/17 01:02:33;;;;;;;10.13;8.05;;;;;;;16.72;100.00;100963.34;678964;29;2699;-72
2023/08/17 01:02:55;;;;;;;11.40;8.45;;;;;;;16.74;100.00;100962.38;679081;29;1964;-72
2023/08/17 01:03:17;;;;;;;11.40;8.30;;;;;;;16.78;100.00;100965.81;679647;28;1388;-71
2023/08/17 01:03:43;;;;;;;9.85;8.40;;;;;;;16.78;100.00;100963.16;676696;29;1503;-72
2023/08/17 01:04:03;;;;;;;9.30;8.40;;;;;;;16.76;100.00;100968.47;677104;29;5061;-70
2023/08/17 01:04:24;;;;;;;9.33;8.27;;;;;;;16.74;100.00;100962.38;676209;29;1813;-69
2023/08/17 01:04:44;;;;;;;9.85;8.00;;;;;;;16.69;100.00;100965.13;675974;29;894;-70
2023/08/17 01:05:06;;;;;;;10.70;8.50;;;;;;;16.68;100.00;100963.41;677388;29;771;-72
2023/08/17 01:05:26;;;;;;;11.02;8.98;;;;;;;16.66;100.00;100967.84;673270;29;1923;-72
2023/08/17 01:05:49;;;;;;;11.10;8.75;;;;;;;16.64;100.00;100961.75;673470;29;1051;-71
2023/08/17 01:06:10;;;;;;;10.17;8.50;;;;;;;16.65;100.00;100965.25;674845;29;839;-71
2023/08/17 01:06:30;;;;;;;10.07;8.52;;;;;;;16.65;100.00;100955.56;677276;29;1798;-72
2023/08/17 01:06:51;;;;;;;11.80;8.60;;;;;;;16.65;100.00;100955.56;679509;28;4345;-72
2023/08/17 01:07:11;;;;;;;12.07;8.77;;;;;;;16.65;100.00;100968.75;676511;29;1726;-72
2023/08/17 01:07:32;;;;;;;10.70;9.13;;;;;;;16.69;100.00;100959.00;675651;29;1529;-71
2023/08/17 01:07:52;;;;;;;10.60;8.80;;;;;;;16.70;100.00;100960.75;677398;29;1150;-71
2023/08/17 01:08:13;;;;;;;9.93;8.37;;;;;;;16.69;100.00;100962.50;677081;29;1256;-72
2023/08/17 01:08:33;;;;;;;10.45;8.48;;;;;;;16.71;100.00;100961.59;676140;29;1550;-72
2023/08/17 01:08:54;;;;;;;10.80;8.57;;;;;;;16.71;100.00;100956.31;677451;29;902;-70
2023/08/17 01:09:14;;;;;;;12.13;8.60;;;;;;;16.68;100.00;100955.50;674909;29;929;-71
2023/08/17 01:09:35;;;;;;;11.77;8.63;;;;;;;16.66;100.00;100959.09;672820;29;1722;-70
2023/08/17 01:09:56;;;;;;;11.13;8.95;;;;;;;16.65;100.00;100963.47;673025;29;4342;-72
2023/08/17 01:10:17;;;;;;;10.40;8.50;;;;;;;16.68;100.00;100960.78;669704;29;1347;-71
2023/08/17 01:10:50;;;;;;;10.68;8.52;;;;;;;16.67;100.00;100956.41;670594;29;1535;-65
2023/08/17 01:11:20;;;;;;;11.82;8.98;;;;;;;16.72;100.00;100958.91;669669;29;1219;-68
2023/08/17 01:11:55;;;;;;;12.15;9.50;;;;;;;16.69;100.00;100954.56;673401;29;3074;-70
2023/08/17 01:12:18;;;;;;;12.05;10.00;;;;;;;16.67;100.00;100960.81;675322;29;882;-71
2023/08/17 01:13:11;;;;;;;11.32;9.40;;;;;;;16.64;100.00;100964.41;675007;29;3494;-71
2023/08/17 01:13:38;;;;;;;11.27;9.45;;;;;;;16.65;100.00;100959.97;676844;29;4748;-72
2023/08/17 01:14:01;;;;;;;11.75;9.77;;;;;;;16.62;100.00;100949.50;676909;29;1340;-70
2023/08/17 01:14:38;;;;;;;11.90;9.75;;;;;;;16.64;100.00;100956.47;679354;29;976;-71
2023/08/17 01:14:59;;;;;;;12.77;10.38;;;;;;;16.67;100.00;100955.53;679260;29;1458;-70
2023/08/17 01:15:28;;;;;;;11.43;9.77;;;;;;;16.66;100.00;100954.66;682377;29;1272;-70
2023/08/17 01:15:58;;;;;;;10.98;9.55;;;;;;;16.67;100.00;100959.03;682047;29;911;-70
2023/08/17 01:16:27;;;;;;;10.85;9.48;;;;;;;16.66;100.00;100949.38;680953;28;1743;-69
2023/08/17 01:16:54;;;;;;;11.50;9.40;;;;;;;16.67;100.00;100951.13;680485;29;1172;-69
2023/08/17 01:17:22;;;;;;;10.85;9.75;;;;;;;16.66;100.00;100952.03;677588;29;1224;-70
2023/08/17 01:18:15;;;;;;;12.30;9.27;;;;;;;16.70;100.00;100944.91;678163;29;1306;-70
2023/08/17 01:18:39;;;;;;;12.13;10.00;;;;;;;16.71;100.00;100953.66;676507;29;2909;-71
2023/08/17 01:19:01;;;;;;;11.25;10.02;;;;;;;16.69;100.00;100953.72;677789;29;4313;-71
2023/08/17 01:19:26;;;;;;;10.70;9.60;;;;;;;16.69;100.00;100951.94;679735;29;830;-70
2023/08/17 01:19:49;;;;;;;11.90;9.90;;;;;;;16.68;100.00;100952.88;679359;29;1032;-69
2023/08/17 01:20:12;;;;;;;11.52;10.05;;;;;;;16.71;100.00;100953.66;679925;29;1244;-69
2023/08/17 01:20:34;;;;;;;11.88;9.98;;;;;;;16.65;100.00;100952.91;678680;29;1809;-70
2023/08/17 01:20:55;;;;;;;10.93;9.82;;;;;;;16.68;100.00;100952.88;678420;29;1209;-70
2023/08/17 01:21:20;;;;;;;11.98;9.60;;;;;;;16.66;100.00;100949.38;676090;29;1551;-70
2023/08/17 01:21:49;;;;;;;12.02;10.02;;;;;;;16.70;100.00;100950.19;674543;29;4312;-72
2023/08/17 01:22:14;;;;;;;13.63;10.50;;;;;;;16.76;100.00;100949.16;676954;29;1240;-70
2023/08/17 01:22:35;;;;;;;12.02;9.80;;;;;;;16.89;100.00;100957.63;674911;29;2165;-67
2023/08/17 01:23:07;;;;;;;13.55;10.13;;;;;;;16.89;100.00;100944.44;678090;29;1969;-69
2023/08/17 01:23:28;;;;;;;12.68;10.18;;;;;;;16.84;100.00;100949.81;677913;29;1975;-69
2023/08/17 01:23:50;;;;;;;12.52;10.48;;;;;;;16.78;100.00;100948.22;674580;29;1346;-69
2023/08/17 01:24:11;;;;;;;11.90;10.68;;;;;;;16.77;100.00;100946.47;674471;29;1230;-70
2023/08/17 01:24:32;;;;;;;12.98;10.50;;;;;;;16.86;100.00;100950.63;675896;29;961;-70
2023/08/17 01:24:58;;;;;;;12.40;10.50;;;;;;;16.77;100.00;100945.63;673960;29;4391;-71
2023/08/17 01:25:21;;;;;;;12.27;10.90;;;;;;;16.83;100.00;100943.66;671788;29;1424;-69
2023/08/17 01:25:41;;;;;;;14.10;10.80;;;;;;;16.86;100.00;100950.63;672517;29;1264;-69
2023/08/17 01:26:04;;;;;;;12.60;11.05;;;;;;;16.81;100.00;100947.25;673460;29;1258;-70
2023/08/17 01:26:25;;;;;;;13.50;11.18;;;;;;;16.80;100.00;100945.53;673053;29;1762;-69
2023/08/17 01:26:47;;;;;;;12.43;11.10;;;;;;;16.74;100.00;100945.66;677194;29;1530;-74
2023/08/17 01:27:08;;;;;;;12.77;11.40;;;;;;;16.71;100.00;100951.03;674433;29;1324;-71
2023/08/17 01:27:39;;;;;;;13.00;11.47;;;;;;;16.68;100.00;100947.59;673500;29;1815;-66
2023/08/17 01:27:59;;;;;;;12.68;10.95;;;;;;;16.65;100.00;100942.34;673572;29;4440;-70
2023/08/17 01:28:20;;;;;;;13.70;11.27;;;;;;;16.63;100.00;100940.69;674199;29;1000;-66
2023/08/17 01:28:40;;;;;;;12.63;11.27;;;;;;;16.59;100.00;100936.41;674996;29;1859;-70
2023/08/17 01:29:02;;;;;;;13.27;11.48;;;;;;;16.63;100.00;100938.91;677388;29;1335;-70
2023/08/17 01:29:23;;;;;;;14.40;12.05;;;;;;;16.65;100.00;100937.06;673119;29;1569;-69
2023/08/17 01:29:43;;;;;;;14.80;11.95;;;;;;;16.65;100.00;100936.22;673130;29;2075;-69
2023/08/17 01:30:05;;;;;;;13.77;12.27;;;;;;;16.65;100.00;100944.13;676874;29;1152;-73
2023/08/17 01:30:25;;;;;;;13.85;12.32;;;;;;;16.66;100.00;100943.25;674474;29;1396;-71
2023/08/17 01:30:57;;;;;;;13.97;11.83;;;;;;;16.68;100.00;100938.78;675631;29;5081;-71
2023/08/17 01:31:24;;;;;;;15.45;12.20;;;;;;;16.68;100.00;100942.31;678123;29;3238;-73
2023/08/17 01:32:06;;;;;;;13.80;12.15;;;;;;;16.63;100.00;100936.28;679214;29;1457;-70
2023/08/17 01:32:58;;;;;;;15.95;13.10;;;;;;;16.65;100.00;100934.44;673742;29;1877;-71
2023/08/17 01:33:32;;;;;;;17.33;13.15;;;;;;;16.61;100.00;100935.41;679356;29;1090;-72
2023/08/17 01:34:02;;;;;;;15.20;12.52;;;;;;;16.57;100.00;100944.31;677264;29;4337;-71
2023/08/17 01:34:25;;;;;;;14.27;12.75;;;;;;;16.57;100.00;100931.13;680132;29;885;-70
2023/08/17 01:35:24;;;;;;;15.70;12.50;;;;;;;16.52;100.00;100936.53;678502;29;921;-74
2023/08/17 01:36:11;;;;;;;14.95;13.27;;;;;;;16.52;100.00;100940.97;679247;29;1069;-72
2023/08/17 01:36:45;;;;;;;16.52;13.70;;;;;;;16.50;100.00;100942.75;675735;29;1216;-71
2023/08/17 01:37:10;;;;;;;14.75;13.13;;;;;;;16.51;100.00;100942.72;677407;29;4734;-72
2023/08/17 01:37:34;;;;;;;15.13;13.40;;;;;;;16.54;100.00;100944.41;677579;28;2633;-73
2023/08/17 01:37:59;;;;;;;15.63;13.25;;;;;;;16.52;100.00;100946.22;676043;29;1018;-71
2023/08/17 01:38:21;;;;;;;16.20;12.95;;;;;;;16.49;100.00;100936.63;674374;29;1305;-71
2023/08/17 01:38:44;;;;;;;16.73;13.55;;;;;;;16.51;100.00;100940.06;672216;29;5669;-72
2023/08/17 01:39:05;;;;;;;15.25;13.35;;;;;;;16.54;100.00;100940.91;675391;29;751;-71
2023/08/17 01:39:37;;;;;;;15.05;13.45;;;;;;;16.56;100.00;100942.63;673177;29;1755;-72
2023/08/17 01:39:58;;;;;;;15.95;13.35;;;;;;;16.59;100.00;100937.25;672766;29;4537;-69
2023/08/17 01:40:21;;;;;;;15.45;13.10;;;;;;;16.57;100.00;100944.31;679586;29;1239;-72
2023/08/17 01:40:43;;;;;;;15.48;13.27;;;;;;;16.54;100.00;100943.56;677523;29;1825;-74
2023/08/17 01:41:06;;;;;;;16.58;13.63;;;;;;;16.57;100.00;100944.31;677954;29;882;-70
2023/08/17 01:41:28;;;;;;;16.92;13.57;;;;;;;16.58;100.00;100947.84;674178;29;2369;-72
2023/08/17 01:41:49;;;;;;;15.40;13.60;;;;;;;16.50;100.00;100941.00;675490;29;1382;-72
2023/08/17 01:42:12;;;;;;;16.45;14.20;;;;;;;16.50;100.00;100948.91;677264;29;1494;-72
2023/08/17 01:42:32;;;;;;;15.20;13.60;;;;;;;16.54;100.00;100944.41;674958;29;2182;-70
2023/08/17 01:42:53;;;;;;;15.33;13.53;;;;;;;16.55;100.00;100940.00;674258;29;4333;-72
2023/08/17 01:43:16;;;;;;;16.20;13.05;;;;;;;16.54;100.00;100948.81;676048;29;850;-73
2023/08/17 01:43:41;;;;;;;15.45;13.13;;;;;;;16.52;100.00;100947.09;675110;29;1786;-72
2023/08/17 01:44:02;;;;;;;15.13;12.73;;;;;;;16.52;100.00;100946.22;681060;29;877;-72
2023/08/17 01:44:23;;;;;;;15.65;13.18;;;;;;;16.54;100.00;100941.75;681193;29;849;-72
2023/08/17 01:44:44;;;;;;;16.45;13.00;;;;;;;16.61;100.00;100940.69;678006;29;1240;-72
2023/08/17 01:45:05;;;;;;;16.70;13.27;;;;;;;16.59;100.00;100946.94;677103;29;1439;-72